Orbital elements of METEOR 2-1
| Launched | 10 July 1975 |
| Flight ended | – |
| Launch site | Plesetsk Missile and Space Complex, Russia |
| Owner | Commonwealth of Independent States (former USSR) |
| NORAD ID | 8026 |
| Date fetched |
Epoch osculation |
Inc. [°] |
Ecc. | RA asc node [hr] |
Arg Peri. [°] |
Mean anom [°] |
Mean motion [rev/day] |
Abs. mag |
| Date fetched |
Epoch osculation |
Inc. [°] |
Ecc. | RA asc node [hr] |
Arg Peri. [°] |
Mean anom [°] |
Mean motion [rev/day] |
Abs. mag |
| 2026 May 04 17:57 | 2026 Apr 30 14:37:16 | 81.2788 | 0.00219 | 4.6298 | 358.5633 | 1.5471 | 14.10802 | 5.743 |
| 2026 May 03 17:57 | 2026 Apr 30 14:37:16 | 81.2788 | 0.00219 | 4.6298 | 358.5633 | 1.5471 | 14.10802 | 5.743 |
| 2026 May 02 17:57 | 2026 Apr 30 14:37:16 | 81.2788 | 0.00219 | 4.6298 | 358.5633 | 1.5471 | 14.10802 | 5.743 |
| 2026 May 01 17:56 | 2026 Apr 30 14:37:16 | 81.2788 | 0.00219 | 4.6298 | 358.5633 | 1.5471 | 14.10802 | 5.743 |
| 2026 Apr 30 17:56 | 2026 Apr 30 14:37:16 | 81.2788 | 0.00219 | 4.6298 | 358.5633 | 1.5471 | 14.10802 | 5.743 |
| 2026 Apr 29 17:57 | 2026 Apr 24 07:08:00 | 81.2774 | 0.00223 | 5.0383 | 15.4245 | 1.5471 | 14.10802 | 5.743 |
| 2026 Apr 28 17:56 | 2026 Apr 24 07:08:00 | 81.2774 | 0.00223 | 5.0383 | 15.4245 | 1.5471 | 14.10802 | 5.743 |
| 2026 Apr 27 17:58 | 2026 Apr 24 07:08:00 | 81.2774 | 0.00223 | 5.0383 | 15.4245 | 1.5471 | 14.10802 | 5.743 |
| 2026 Apr 26 17:58 | 2026 Apr 24 07:08:00 | 81.2774 | 0.00223 | 5.0383 | 15.4245 | 1.5471 | 14.10802 | 5.743 |
| 2026 Apr 25 17:58 | 2026 Apr 24 07:08:00 | 81.2774 | 0.00223 | 5.0383 | 15.4245 | 1.5471 | 14.10802 | 5.743 |
| 2026 Apr 24 17:59 | 2026 Apr 24 07:08:00 | 81.2774 | 0.00223 | 5.0383 | 15.4245 | 1.5471 | 14.10802 | 5.743 |
| 2026 Apr 23 17:57 | 2026 Apr 19 07:59:09 | 81.2767 | 0.00226 | 5.3597 | 28.5761 | 1.5471 | 14.10802 | 5.743 |
| 2026 Apr 22 17:57 | 2026 Apr 19 07:59:09 | 81.2767 | 0.00226 | 5.3597 | 28.5761 | 1.5471 | 14.10802 | 5.743 |
| 2026 Apr 21 17:57 | 2026 Apr 19 07:59:09 | 81.2767 | 0.00226 | 5.3597 | 28.5761 | 1.5471 | 14.10802 | 5.743 |
| 2026 Apr 20 17:57 | 2026 Apr 19 07:59:09 | 81.2767 | 0.00226 | 5.3597 | 28.5761 | 1.5471 | 14.10802 | 5.743 |
| 2026 Apr 19 17:58 | 2026 Apr 19 07:59:09 | 81.2767 | 0.00226 | 5.3597 | 28.5761 | 1.5471 | 14.10802 | 5.743 |
| 2026 Apr 18 17:56 | 2026 Apr 13 05:36:16 | 81.2760 | 0.00228 | 5.7545 | 45.0515 | 1.5471 | 14.10802 | 5.743 |
| 2026 Apr 16 17:57 | 2026 Apr 13 05:36:16 | 81.2760 | 0.00228 | 5.7545 | 45.0515 | 1.5471 | 14.10802 | 5.743 |
| 2026 Apr 14 17:57 | 2026 Apr 13 05:36:16 | 81.2760 | 0.00228 | 5.7545 | 45.0515 | 1.5471 | 14.10802 | 5.743 |
| 2026 Apr 13 17:57 | 2026 Apr 13 05:36:16 | 81.2760 | 0.00228 | 5.7545 | 45.0515 | 1.5471 | 14.10802 | 5.743 |
| 2026 Apr 12 17:57 | 2026 Apr 08 11:33:48 | 81.2757 | 0.00231 | 6.0621 | 58.2830 | 1.5471 | 14.10802 | 5.743 |
| 2026 Apr 11 17:57 | 2026 Apr 08 11:33:48 | 81.2757 | 0.00231 | 6.0621 | 58.2830 | 1.5471 | 14.10802 | 5.743 |
| 2026 Apr 10 17:58 | 2026 Apr 08 11:33:48 | 81.2757 | 0.00231 | 6.0621 | 58.2830 | 1.5471 | 14.10802 | 5.743 |
| 2026 Apr 09 18:01 | 2026 Apr 08 11:33:48 | 81.2757 | 0.00231 | 6.0621 | 58.2830 | 1.5471 | 14.10802 | 5.743 |
| 2026 Apr 08 17:57 | 2026 Apr 08 11:33:48 | 81.2757 | 0.00231 | 6.0621 | 58.2830 | 1.5471 | 14.10802 | 5.743 |
| 2026 Apr 07 17:57 | 2026 Apr 02 07:28:47 | 81.2755 | 0.00235 | 6.4615 | 75.5180 | 1.5471 | 14.10802 | 5.743 |